sensor_id;sensor_type;location;lat;lon;timestamp;temperature;humidity
23719;DHT22;43322;52.230;5.702;2023-12-20T00:02:03;6.10;99.90
23719;DHT22;43322;52.230;5.702;2023-12-20T00:04:30;6.20;99.90
23719;DHT22;43322;52.230;5.702;2023-12-20T00:06:57;6.10;99.90
23719;DHT22;43322;52.230;5.702;2023-12-20T00:09:24;5.90;99.90
23719;DHT22;43322;52.230;5.702;2023-12-20T00:11:51;7.00;99.90
23719;DHT22;43322;52.230;5.702;2023-12-20T00:14:18;7.00;99.90
23719;DHT22;43322;52.230;5.702;2023-12-20T00:16:47;6.40;99.90
23719;DHT22;43322;52.230;5.702;2023-12-20T00:19:13;5.90;99.90
23719;DHT22;43322;52.230;5.702;2023-12-20T00:21:40;6.60;99.90
23719;DHT22;43322;52.230;5.702;2023-12-20T00:24:07;6.40;99.90
23719;DHT22;43322;52.230;5.702;2023-12-20T00:26:34;6.70;99.90
23719;DHT22;43322;52.230;5.702;2023-12-20T00:29:01;6.60;99.90
23719;DHT22;43322;52.230;5.702;2023-12-20T00:31:28;6.70;99.90
23719;DHT22;43322;52.230;5.702;2023-12-20T00:33:57;5.80;99.90
23719;DHT22;43322;52.230;5.702;2023-12-20T00:36:24;6.90;99.90
23719;DHT22;43322;52.230;5.702;2023-12-20T00:38:51;6.50;99.90
23719;DHT22;43322;52.230;5.702;2023-12-20T00:41:18;6.00;99.90
23719;DHT22;43322;52.230;5.702;2023-12-20T00:43:45;6.00;99.90
23719;DHT22;43322;52.230;5.702;2023-12-20T00:46:12;6.00;99.90
23719;DHT22;43322;52.230;5.702;2023-12-20T00:48:39;6.80;99.90
23719;DHT22;43322;52.230;5.702;2023-12-20T00:51:09;6.10;99.90
23719;DHT22;43322;52.230;5.702;2023-12-20T00:53:36;7.10;99.90
23719;DHT22;43322;52.230;5.702;2023-12-20T00:56:03;5.70;99.90
23719;DHT22;43322;52.230;5.702;2023-12-20T00:58:30;5.80;99.90
23719;DHT22;43322;52.230;5.702;2023-12-20T01:00:57;7.20;99.90
23719;DHT22;43322;52.230;5.702;2023-12-20T01:03:24;5.80;99.90
23719;DHT22;43322;52.230;5.702;2023-12-20T01:05:51;5.80;99.90
23719;DHT22;43322;52.230;5.702;2023-12-20T01:08:20;5.70;99.90
23719;DHT22;43322;52.230;5.702;2023-12-20T01:10:46;6.40;99.90
23719;DHT22;43322;52.230;5.702;2023-12-20T01:13:13;5.60;99.90
23719;DHT22;43322;52.230;5.702;2023-12-20T01:15:41;5.70;99.90
23719;DHT22;43322;52.230;5.702;2023-12-20T01:18:08;6.30;99.90
23719;DHT22;43322;52.230;5.702;2023-12-20T01:20:35;5.60;99.90
23719;DHT22;43322;52.230;5.702;2023-12-20T01:23:01;5.50;99.90
23719;DHT22;43322;52.230;5.702;2023-12-20T01:25:30;5.50;99.90
23719;DHT22;43322;52.230;5.702;2023-12-20T01:27:56;6.20;99.90
23719;DHT22;43322;52.230;5.702;2023-12-20T01:30:23;5.60;99.90
23719;DHT22;43322;52.230;5.702;2023-12-20T01:32:51;5.50;99.90
23719;DHT22;43322;52.230;5.702;2023-12-20T01:35:17;5.50;99.90
23719;DHT22;43322;52.230;5.702;2023-12-20T01:37:45;5.50;99.90
23719;DHT22;43322;52.230;5.702;2023-12-20T01:40:12;6.20;99.90
23719;DHT22;43322;52.230;5.702;2023-12-20T01:42:41;5.50;99.90
23719;DHT22;43322;52.230;5.702;2023-12-20T01:45:08;5.70;99.90
23719;DHT22;43322;52.230;5.702;2023-12-20T01:47:36;5.70;99.90
23719;DHT22;43322;52.230;5.702;2023-12-20T01:50:04;5.70;99.90
23719;DHT22;43322;52.230;5.702;2023-12-20T01:52:34;5.70;99.90
23719;DHT22;43322;52.230;5.702;2023-12-20T01:55:02;6.40;99.90
23719;DHT22;43322;52.230;5.702;2023-12-20T01:57:32;5.70;99.90
23719;DHT22;43322;52.230;5.702;2023-12-20T02:00:00;6.60;99.90
23719;DHT22;43322;52.230;5.702;2023-12-20T02:02:29;5.70;99.90
23719;DHT22;43322;52.230;5.702;2023-12-20T02:04:57;6.10;99.90
23719;DHT22;43322;52.230;5.702;2023-12-20T02:07:24;5.70;99.90
23719;DHT22;43322;52.230;5.702;2023-12-20T02:09:51;5.70;99.90
23719;DHT22;43322;52.230;5.702;2023-12-20T02:12:18;6.10;99.90
23719;DHT22;43322;52.230;5.702;2023-12-20T02:14:46;6.30;99.90
23719;DHT22;43322;52.230;5.702;2023-12-20T02:17:14;6.60;99.90
23719;DHT22;43322;52.230;5.702;2023-12-20T02:19:41;6.90;99.90
23719;DHT22;43322;52.230;5.702;2023-12-20T02:22:10;5.80;99.90
23719;DHT22;43322;52.230;5.702;2023-12-20T02:24:38;5.90;99.90
23719;DHT22;43322;52.230;5.702;2023-12-20T02:27:07;6.30;99.90
23719;DHT22;43322;52.230;5.702;2023-12-20T02:29:34;5.80;99.90
23719;DHT22;43322;52.230;5.702;2023-12-20T02:32:02;6.30;99.90
23719;DHT22;43322;52.230;5.702;2023-12-20T02:34:29;5.90;99.90
23719;DHT22;43322;52.230;5.702;2023-12-20T02:36:56;7.30;99.90
23719;DHT22;43322;52.230;5.702;2023-12-20T02:39:25;6.90;99.90
23719;DHT22;43322;52.230;5.702;2023-12-20T02:41:52;6.20;99.90
23719;DHT22;43322;52.230;5.702;2023-12-20T02:44:19;6.50;99.90
23719;DHT22;43322;52.230;5.702;2023-12-20T02:46:46;6.00;99.90
23719;DHT22;43322;52.230;5.702;2023-12-20T02:49:13;6.10;99.90
23719;DHT22;43322;52.230;5.702;2023-12-20T02:51:40;6.00;99.90
23719;DHT22;43322;52.230;5.702;2023-12-20T02:54:06;6.00;99.90
23719;DHT22;43322;52.230;5.702;2023-12-20T02:56:35;6.20;99.90
23719;DHT22;43322;52.230;5.702;2023-12-20T02:59:02;6.10;99.90
23719;DHT22;43322;52.230;5.702;2023-12-20T03:01:31;6.00;99.90
23719;DHT22;43322;52.230;5.702;2023-12-20T03:03:58;6.00;99.90
23719;DHT22;43322;52.230;5.702;2023-12-20T03:06:24;6.00;99.90
23719;DHT22;43322;52.230;5.702;2023-12-20T03:08:51;6.10;99.90
23719;DHT22;43322;52.230;5.702;2023-12-20T03:11:18;6.00;99.90
23719;DHT22;43322;52.230;5.702;2023-12-20T03:13:47;6.10;99.90
23719;DHT22;43322;52.230;5.702;2023-12-20T03:16:14;6.20;99.90
23719;DHT22;43322;52.230;5.702;2023-12-20T03:18:42;6.10;99.90
23719;DHT22;43322;52.230;5.702;2023-12-20T03:21:09;6.20;99.90
23719;DHT22;43322;52.230;5.702;2023-12-20T03:23:36;6.40;99.90
23719;DHT22;43322;52.230;5.702;2023-12-20T03:26:03;6.20;99.90
23719;DHT22;43322;52.230;5.702;2023-12-20T03:28:30;6.80;99.90
23719;DHT22;43322;52.230;5.702;2023-12-20T03:30:58;6.20;99.90
23719;DHT22;43322;52.230;5.702;2023-12-20T03:33:25;6.10;99.90
23719;DHT22;43322;52.230;5.702;2023-12-20T03:35:52;6.20;99.90
23719;DHT22;43322;52.230;5.702;2023-12-20T03:38:19;6.30;99.90
23719;DHT22;43322;52.230;5.702;2023-12-20T03:40:46;6.50;99.90
23719;DHT22;43322;52.230;5.702;2023-12-20T03:43:13;6.00;99.90
23719;DHT22;43322;52.230;5.702;2023-12-20T03:45:40;6.00;99.90
23719;DHT22;43322;52.230;5.702;2023-12-20T03:48:08;6.00;99.90
23719;DHT22;43322;52.230;5.702;2023-12-20T03:50:35;6.00;99.90
23719;DHT22;43322;52.230;5.702;2023-12-20T03:53:02;6.00;99.90
23719;DHT22;43322;52.230;5.702;2023-12-20T03:55:30;6.00;99.90
23719;DHT22;43322;52.230;5.702;2023-12-20T03:57:57;6.10;99.90
23719;DHT22;43322;52.230;5.702;2023-12-20T04:00:24;6.00;99.90
23719;DHT22;43322;52.230;5.702;2023-12-20T04:02:51;6.00;99.90
23719;DHT22;43322;52.230;5.702;2023-12-20T04:05:19;6.00;99.90
23719;DHT22;43322;52.230;5.702;2023-12-20T04:07:46;6.00;99.90
23719;DHT22;43322;52.230;5.702;2023-12-20T04:10:13;6.40;99.90
23719;DHT22;43322;52.230;5.702;2023-12-20T04:12:40;7.00;99.90
23719;DHT22;43322;52.230;5.702;2023-12-20T04:15:07;6.20;99.90
23719;DHT22;43322;52.230;5.702;2023-12-20T04:17:37;6.20;99.90
23719;DHT22;43322;52.230;5.702;2023-12-20T04:20:05;6.30;99.90
23719;DHT22;43322;52.230;5.702;2023-12-20T04:22:34;6.30;99.90
23719;DHT22;43322;52.230;5.702;2023-12-20T04:25:00;6.40;99.90
23719;DHT22;43322;52.230;5.702;2023-12-20T04:27:27;6.40;99.90
23719;DHT22;43322;52.230;5.702;2023-12-20T04:29:54;6.70;99.90
23719;DHT22;43322;52.230;5.702;2023-12-20T04:32:21;7.10;99.90
23719;DHT22;43322;52.230;5.702;2023-12-20T04:34:48;6.40;99.90
23719;DHT22;43322;52.230;5.702;2023-12-20T04:37:15;7.20;99.90
23719;DHT22;43322;52.230;5.702;2023-12-20T04:39:44;6.80;99.90
23719;DHT22;43322;52.230;5.702;2023-12-20T04:42:11;6.50;99.90
23719;DHT22;43322;52.230;5.702;2023-12-20T04:44:38;6.50;99.90
23719;DHT22;43322;52.230;5.702;2023-12-20T04:47:04;7.10;99.90
23719;DHT22;43322;52.230;5.702;2023-12-20T04:49:31;6.70;99.90
23719;DHT22;43322;52.230;5.702;2023-12-20T04:51:58;7.10;99.90
23719;DHT22;43322;52.230;5.702;2023-12-20T04:54:25;6.50;99.90
23719;DHT22;43322;52.230;5.702;2023-12-20T04:56:53;6.50;99.90
23719;DHT22;43322;52.230;5.702;2023-12-20T04:59:20;6.60;99.90
23719;DHT22;43322;52.230;5.702;2023-12-20T05:01:47;6.60;99.90
23719;DHT22;43322;52.230;5.702;2023-12-20T05:04:14;6.60;99.90
23719;DHT22;43322;52.230;5.702;2023-12-20T05:06:41;6.60;99.90
23719;DHT22;43322;52.230;5.702;2023-12-20T05:09:08;6.60;99.90
23719;DHT22;43322;52.230;5.702;2023-12-20T05:11:35;6.80;99.90
23719;DHT22;43322;52.230;5.702;2023-12-20T05:14:04;6.70;99.90
23719;DHT22;43322;52.230;5.702;2023-12-20T05:16:30;6.30;99.90
23719;DHT22;43322;52.230;5.702;2023-12-20T05:18:57;6.90;99.90
23719;DHT22;43322;52.230;5.702;2023-12-20T05:21:26;6.70;99.90
23719;DHT22;43322;52.230;5.702;2023-12-20T05:23:53;6.70;99.90
23719;DHT22;43322;52.230;5.702;2023-12-20T05:26:20;6.70;99.90
23719;DHT22;43322;52.230;5.702;2023-12-20T05:28:46;6.70;99.90
23719;DHT22;43322;52.230;5.702;2023-12-20T05:31:15;6.70;99.90
23719;DHT22;43322;52.230;5.702;2023-12-20T05:33:42;6.80;99.90
23719;DHT22;43322;52.230;5.702;2023-12-20T05:36:08;7.30;99.90
23719;DHT22;43322;52.230;5.702;2023-12-20T05:38:39;6.80;99.90
23719;DHT22;43322;52.230;5.702;2023-12-20T05:41:05;6.90;99.90
23719;DHT22;43322;52.230;5.702;2023-12-20T05:43:33;6.80;99.90
23719;DHT22;43322;52.230;5.702;2023-12-20T05:46:00;6.90;99.90
23719;DHT22;43322;52.230;5.702;2023-12-20T05:48:28;6.80;99.90
23719;DHT22;43322;52.230;5.702;2023-12-20T05:50:55;6.90;99.90
23719;DHT22;43322;52.230;5.702;2023-12-20T05:53:22;6.90;99.90
23719;DHT22;43322;52.230;5.702;2023-12-20T05:55:48;6.90;99.90
23719;DHT22;43322;52.230;5.702;2023-12-20T05:58:15;7.30;99.90
23719;DHT22;43322;52.230;5.702;2023-12-20T06:00:42;6.90;99.90
23719;DHT22;43322;52.230;5.702;2023-12-20T06:03:09;7.60;99.90
23719;DHT22;43322;52.230;5.702;2023-12-20T06:05:37;7.00;99.90
23719;DHT22;43322;52.230;5.702;2023-12-20T06:08:05;6.90;99.90
23719;DHT22;43322;52.230;5.702;2023-12-20T06:10:32;6.90;99.90
23719;DHT22;43322;52.230;5.702;2023-12-20T06:12:59;6.90;99.90
23719;DHT22;43322;52.230;5.702;2023-12-20T06:15:26;6.90;99.90
23719;DHT22;43322;52.230;5.702;2023-12-20T06:17:53;7.00;99.90
23719;DHT22;43322;52.230;5.702;2023-12-20T06:20:20;7.10;99.90
23719;DHT22;43322;52.230;5.702;2023-12-20T06:22:48;7.00;99.90
23719;DHT22;43322;52.230;5.702;2023-12-20T06:25:15;7.20;99.90
23719;DHT22;43322;52.230;5.702;2023-12-20T06:27:42;7.00;99.90
23719;DHT22;43322;52.230;5.702;2023-12-20T06:30:09;7.00;99.90
23719;DHT22;43322;52.230;5.702;2023-12-20T06:32:36;7.00;99.90
23719;DHT22;43322;52.230;5.702;2023-12-20T06:35:06;7.00;99.90
23719;DHT22;43322;52.230;5.702;2023-12-20T06:37:33;7.00;99.90
23719;DHT22;43322;52.230;5.702;2023-12-20T06:40:01;7.00;99.90
23719;DHT22;43322;52.230;5.702;2023-12-20T06:42:28;7.10;99.90
23719;DHT22;43322;52.230;5.702;2023-12-20T06:44:54;7.10;99.90
23719;DHT22;43322;52.230;5.702;2023-12-20T06:47:21;7.10;99.90
23719;DHT22;43322;52.230;5.702;2023-12-20T06:49:48;7.50;99.90
23719;DHT22;43322;52.230;5.702;2023-12-20T06:52:15;7.10;99.90
23719;DHT22;43322;52.230;5.702;2023-12-20T06:54:42;7.10;99.90
23719;DHT22;43322;52.230;5.702;2023-12-20T06:57:11;7.10;99.90
23719;DHT22;43322;52.230;5.702;2023-12-20T06:59:38;7.10;99.90
23719;DHT22;43322;52.230;5.702;2023-12-20T07:02:06;6.90;99.90
23719;DHT22;43322;52.230;5.702;2023-12-20T07:04:33;7.20;99.90
23719;DHT22;43322;52.230;5.702;2023-12-20T07:07:00;7.10;99.90
23719;DHT22;43322;52.230;5.702;2023-12-20T07:09:27;7.10;99.90
23719;DHT22;43322;52.230;5.702;2023-12-20T07:11:54;7.20;99.90
23719;DHT22;43322;52.230;5.702;2023-12-20T07:14:22;7.20;99.90
23719;DHT22;43322;52.230;5.702;2023-12-20T07:16:49;7.20;99.90
23719;DHT22;43322;52.230;5.702;2023-12-20T07:19:16;7.20;99.90
23719;DHT22;43322;52.230;5.702;2023-12-20T07:21:43;7.10;99.90
23719;DHT22;43322;52.230;5.702;2023-12-20T07:24:10;7.30;99.90
23719;DHT22;43322;52.230;5.702;2023-12-20T07:26:37;7.30;99.90
23719;DHT22;43322;52.230;5.702;2023-12-20T07:29:05;7.30;99.90
23719;DHT22;43322;52.230;5.702;2023-12-20T07:31:34;7.20;99.90
23719;DHT22;43322;52.230;5.702;2023-12-20T07:34:01;7.20;99.90
23719;DHT22;43322;52.230;5.702;2023-12-20T07:36:28;7.20;99.90
23719;DHT22;43322;52.230;5.702;2023-12-20T07:38:55;7.20;99.90
23719;DHT22;43322;52.230;5.702;2023-12-20T07:41:22;7.70;99.90
23719;DHT22;43322;52.230;5.702;2023-12-20T07:43:49;7.30;99.90
23719;DHT22;43322;52.230;5.702;2023-12-20T07:46:16;7.40;99.90
23719;DHT22;43322;52.230;5.702;2023-12-20T07:48:45;7.30;99.90
23719;DHT22;43322;52.230;5.702;2023-12-20T07:51:12;7.80;99.90
23719;DHT22;43322;52.230;5.702;2023-12-20T07:53:39;7.40;99.90
23719;DHT22;43322;52.230;5.702;2023-12-20T07:56:14;7.30;99.90
23719;DHT22;43322;52.230;5.702;2023-12-20T07:58:42;7.30;99.90
23719;DHT22;43322;52.230;5.702;2023-12-20T08:01:10;8.10;99.90
23719;DHT22;43322;52.230;5.702;2023-12-20T08:03:37;7.30;99.90
23719;DHT22;43322;52.230;5.702;2023-12-20T08:06:07;7.40;99.90
23719;DHT22;43322;52.230;5.702;2023-12-20T08:08:34;7.40;99.90
23719;DHT22;43322;52.230;5.702;2023-12-20T08:11:01;7.40;99.90
23719;DHT22;43322;52.230;5.702;2023-12-20T08:13:28;7.30;99.90
23719;DHT22;43322;52.230;5.702;2023-12-20T08:15:55;7.40;99.90
23719;DHT22;43322;52.230;5.702;2023-12-20T08:18:22;7.80;99.90
23719;DHT22;43322;52.230;5.702;2023-12-20T08:20:49;7.70;99.90
23719;DHT22;43322;52.230;5.702;2023-12-20T08:23:19;7.50;99.90
23719;DHT22;43322;52.230;5.702;2023-12-20T08:25:47;7.90;99.90
23719;DHT22;43322;52.230;5.702;2023-12-20T08:28:14;7.10;99.90
23719;DHT22;43322;52.230;5.702;2023-12-20T08:30:42;7.40;99.90
23719;DHT22;43322;52.230;5.702;2023-12-20T08:33:08;8.60;99.90
23719;DHT22;43322;52.230;5.702;2023-12-20T08:35:38;7.40;99.90
23719;DHT22;43322;52.230;5.702;2023-12-20T08:38:05;7.40;99.90
23719;DHT22;43322;52.230;5.702;2023-12-20T08:40:33;7.50;99.90
23719;DHT22;43322;52.230;5.702;2023-12-20T08:43:01;7.50;99.90
23719;DHT22;43322;52.230;5.702;2023-12-20T08:45:28;7.70;99.90
23719;DHT22;43322;52.230;5.702;2023-12-20T08:47:55;8.50;99.90
23719;DHT22;43322;52.230;5.702;2023-12-20T08:50:22;8.20;99.90
23719;DHT22;43322;52.230;5.702;2023-12-20T08:52:49;7.50;99.90
23719;DHT22;43322;52.230;5.702;2023-12-20T08:55:16;7.40;99.90
23719;DHT22;43322;52.230;5.702;2023-12-20T08:57:45;8.60;99.90
23719;DHT22;43322;52.230;5.702;2023-12-20T09:00:13;7.90;99.90
23719;DHT22;43322;52.230;5.702;2023-12-20T09:02:42;7.60;99.90
23719;DHT22;43322;52.230;5.702;2023-12-20T09:05:09;7.60;99.90
23719;DHT22;43322;52.230;5.702;2023-12-20T09:07:36;7.50;99.90
23719;DHT22;43322;52.230;5.702;2023-12-20T09:10:03;7.50;99.90
23719;DHT22;43322;52.230;5.702;2023-12-20T09:12:30;7.50;99.90
23719;DHT22;43322;52.230;5.702;2023-12-20T09:14:58;7.50;99.90
23719;DHT22;43322;52.230;5.702;2023-12-20T09:17:28;7.50;99.90
23719;DHT22;43322;52.230;5.702;2023-12-20T09:19:55;7.40;99.90
23719;DHT22;43322;52.230;5.702;2023-12-20T09:22:21;7.60;99.90
23719;DHT22;43322;52.230;5.702;2023-12-20T09:24:48;7.60;99.90
23719;DHT22;43322;52.230;5.702;2023-12-20T09:27:15;7.40;99.90
23719;DHT22;43322;52.230;5.702;2023-12-20T09:29:42;7.40;99.90
23719;DHT22;43322;52.230;5.702;2023-12-20T09:32:10;7.40;99.90
23719;DHT22;43322;52.230;5.702;2023-12-20T09:34:37;7.30;99.90
23719;DHT22;43322;52.230;5.702;2023-12-20T09:37:04;6.90;99.90
23719;DHT22;43322;52.230;5.702;2023-12-20T09:39:33;7.40;99.90
23719;DHT22;43322;52.230;5.702;2023-12-20T09:42:01;7.40;99.90
23719;DHT22;43322;52.230;5.702;2023-12-20T09:44:29;7.40;99.90
23719;DHT22;43322;52.230;5.702;2023-12-20T09:46:57;7.50;99.90
23719;DHT22;43322;52.230;5.702;2023-12-20T09:49:27;7.60;99.90
23719;DHT22;43322;52.230;5.702;2023-12-20T09:51:54;7.60;99.90
23719;DHT22;43322;52.230;5.702;2023-12-20T09:54:23;7.90;99.90
23719;DHT22;43322;52.230;5.702;2023-12-20T09:56:50;8.10;99.90
23719;DHT22;43322;52.230;5.702;2023-12-20T09:59:17;8.10;99.90
23719;DHT22;43322;52.230;5.702;2023-12-20T10:01:44;7.80;99.90
23719;DHT22;43322;52.230;5.702;2023-12-20T10:04:12;7.80;99.90
23719;DHT22;43322;52.230;5.702;2023-12-20T10:06:42;7.80;99.90
23719;DHT22;43322;52.230;5.702;2023-12-20T10:09:10;7.80;99.90
23719;DHT22;43322;52.230;5.702;2023-12-20T10:11:37;8.70;99.90
23719;DHT22;43322;52.230;5.702;2023-12-20T10:14:04;8.00;99.90
23719;DHT22;43322;52.230;5.702;2023-12-20T10:16:32;8.30;99.90
23719;DHT22;43322;52.230;5.702;2023-12-20T10:18:59;8.00;99.90
23719;DHT22;43322;52.230;5.702;2023-12-20T10:21:27;7.90;99.90
23719;DHT22;43322;52.230;5.702;2023-12-20T10:23:55;8.00;99.90
23719;DHT22;43322;52.230;5.702;2023-12-20T10:26:23;8.20;99.90
23719;DHT22;43322;52.230;5.702;2023-12-20T10:28:51;9.10;99.90
23719;DHT22;43322;52.230;5.702;2023-12-20T10:31:29;8.10;99.90
23719;DHT22;43322;52.230;5.702;2023-12-20T10:33:57;8.10;99.90
23719;DHT22;43322;52.230;5.702;2023-12-20T10:36:25;8.90;99.90
23719;DHT22;43322;52.230;5.702;2023-12-20T10:38:55;8.70;99.90
23719;DHT22;43322;52.230;5.702;2023-12-20T10:41:25;8.30;99.90
23719;DHT22;43322;52.230;5.702;2023-12-20T10:43:54;8.20;99.90
23719;DHT22;43322;52.230;5.702;2023-12-20T10:46:22;9.00;99.90
23719;DHT22;43322;52.230;5.702;2023-12-20T10:48:53;8.20;99.90
23719;DHT22;43322;52.230;5.702;2023-12-20T10:51:20;9.60;99.90
23719;DHT22;43322;52.230;5.702;2023-12-20T10:53:48;8.30;99.90
23719;DHT22;43322;52.230;5.702;2023-12-20T10:56:18;8.20;99.90
23719;DHT22;43322;52.230;5.702;2023-12-20T10:58:46;8.20;99.90
23719;DHT22;43322;52.230;5.702;2023-12-20T11:01:14;8.70;99.90
23719;DHT22;43322;52.230;5.702;2023-12-20T11:03:46;8.20;99.90
23719;DHT22;43322;52.230;5.702;2023-12-20T11:06:26;8.30;99.90
23719;DHT22;43322;52.230;5.702;2023-12-20T11:09:01;8.40;99.90
23719;DHT22;43322;52.230;5.702;2023-12-20T11:11:44;8.40;99.90
23719;DHT22;43322;52.230;5.702;2023-12-20T11:14:17;9.50;99.90
23719;DHT22;43322;52.230;5.702;2023-12-20T11:16:45;8.90;99.90
23719;DHT22;43322;52.230;5.702;2023-12-20T11:19:12;9.20;99.90
23719;DHT22;43322;52.230;5.702;2023-12-20T11:21:40;9.60;99.90
23719;DHT22;43322;52.230;5.702;2023-12-20T11:24:08;9.30;99.90
23719;DHT22;43322;52.230;5.702;2023-12-20T11:26:37;9.60;99.90
23719;DHT22;43322;52.230;5.702;2023-12-20T11:29:29;10.50;99.90
23719;DHT22;43322;52.230;5.702;2023-12-20T11:31:56;10.00;99.90
23719;DHT22;43322;52.230;5.702;2023-12-20T11:34:27;9.90;99.90
23719;DHT22;43322;52.230;5.702;2023-12-20T11:36:57;9.80;99.90
23719;DHT22;43322;52.230;5.702;2023-12-20T11:39:25;9.70;99.90
23719;DHT22;43322;52.230;5.702;2023-12-20T11:41:56;9.10;99.90
23719;DHT22;43322;52.230;5.702;2023-12-20T11:44:25;10.50;99.90
23719;DHT22;43322;52.230;5.702;2023-12-20T11:46:52;9.30;99.90
23719;DHT22;43322;52.230;5.702;2023-12-20T11:49:23;10.70;99.90
23719;DHT22;43322;52.230;5.702;2023-12-20T11:51:50;9.80;99.90
23719;DHT22;43322;52.230;5.702;2023-12-20T11:54:18;9.60;99.90
23719;DHT22;43322;52.230;5.702;2023-12-20T11:56:45;10.40;99.90
23719;DHT22;43322;52.230;5.702;2023-12-20T11:59:14;9.20;99.90
23719;DHT22;43322;52.230;5.702;2023-12-20T12:01:48;9.80;99.90
23719;DHT22;43322;52.230;5.702;2023-12-20T12:04:16;10.20;99.90
23719;DHT22;43322;52.230;5.702;2023-12-20T12:06:43;9.20;99.90
23719;DHT22;43322;52.230;5.702;2023-12-20T12:09:10;10.30;99.90
23719;DHT22;43322;52.230;5.702;2023-12-20T12:11:38;9.70;99.90
23719;DHT22;43322;52.230;5.702;2023-12-20T12:14:06;9.40;99.90
23719;DHT22;43322;52.230;5.702;2023-12-20T12:16:35;9.10;99.90
23719;DHT22;43322;52.230;5.702;2023-12-20T12:19:02;9.00;99.90
23719;DHT22;43322;52.230;5.702;2023-12-20T12:21:30;9.10;99.90
23719;DHT22;43322;52.230;5.702;2023-12-20T12:24:06;9.00;99.90
23719;DHT22;43322;52.230;5.702;2023-12-20T12:26:34;9.10;99.90
23719;DHT22;43322;52.230;5.702;2023-12-20T12:29:00;9.10;99.90
23719;DHT22;43322;52.230;5.702;2023-12-20T12:31:28;9.00;99.90
23719;DHT22;43322;52.230;5.702;2023-12-20T12:33:57;9.00;99.90
23719;DHT22;43322;52.230;5.702;2023-12-20T12:36:24;9.10;99.90
23719;DHT22;43322;52.230;5.702;2023-12-20T12:38:51;9.00;99.90
23719;DHT22;43322;52.230;5.702;2023-12-20T12:41:17;9.10;99.90
23719;DHT22;43322;52.230;5.702;2023-12-20T12:43:44;9.00;99.90
23719;DHT22;43322;52.230;5.702;2023-12-20T12:46:11;9.00;99.90
23719;DHT22;43322;52.230;5.702;2023-12-20T12:48:38;9.00;99.90
23719;DHT22;43322;52.230;5.702;2023-12-20T12:51:06;8.90;99.90
23719;DHT22;43322;52.230;5.702;2023-12-20T12:53:38;9.00;99.90
23719;DHT22;43322;52.230;5.702;2023-12-20T12:56:05;8.90;99.90
23719;DHT22;43322;52.230;5.702;2023-12-20T12:58:32;8.90;99.90
23719;DHT22;43322;52.230;5.702;2023-12-20T13:00:59;8.90;99.90
23719;DHT22;43322;52.230;5.702;2023-12-20T13:03:26;8.90;99.90
23719;DHT22;43322;52.230;5.702;2023-12-20T13:05:53;8.80;99.90
23719;DHT22;43322;52.230;5.702;2023-12-20T13:08:22;8.80;99.90
23719;DHT22;43322;52.230;5.702;2023-12-20T13:10:49;9.10;99.90
23719;DHT22;43322;52.230;5.702;2023-12-20T13:13:16;8.80;99.90
23719;DHT22;43322;52.230;5.702;2023-12-20T13:15:43;8.80;99.90
23719;DHT22;43322;52.230;5.702;2023-12-20T13:18:16;8.80;99.90
23719;DHT22;43322;52.230;5.702;2023-12-20T13:20:43;8.90;99.90
23719;DHT22;43322;52.230;5.702;2023-12-20T13:23:10;8.90;99.90
23719;DHT22;43322;52.230;5.702;2023-12-20T13:25:39;8.80;99.90
23719;DHT22;43322;52.230;5.702;2023-12-20T13:28:06;8.70;99.90
23719;DHT22;43322;52.230;5.702;2023-12-20T13:30:33;8.70;99.90
23719;DHT22;43322;52.230;5.702;2023-12-20T13:33:01;8.40;99.90
23719;DHT22;43322;52.230;5.702;2023-12-20T13:35:28;10.10;99.90
23719;DHT22;43322;52.230;5.702;2023-12-20T13:37:55;8.90;99.90
23719;DHT22;43322;52.230;5.702;2023-12-20T13:40:22;8.90;99.90
23719;DHT22;43322;52.230;5.702;2023-12-20T13:42:50;9.10;99.90
23719;DHT22;43322;52.230;5.702;2023-12-20T13:45:17;8.80;99.90
23719;DHT22;43322;52.230;5.702;2023-12-20T13:47:44;10.00;99.90
23719;DHT22;43322;52.230;5.702;2023-12-20T13:50:11;8.70;99.90
23719;DHT22;43322;52.230;5.702;2023-12-20T13:52:38;8.70;99.90
23719;DHT22;43322;52.230;5.702;2023-12-20T13:55:06;9.00;99.90
23719;DHT22;43322;52.230;5.702;2023-12-20T13:57:33;8.60;99.90
23719;DHT22;43322;52.230;5.702;2023-12-20T14:00:05;9.20;99.90
23719;DHT22;43322;52.230;5.702;2023-12-20T14:02:38;8.70;99.90
23719;DHT22;43322;52.230;5.702;2023-12-20T14:05:06;8.60;99.90
23719;DHT22;43322;52.230;5.702;2023-12-20T14:07:33;8.80;99.90
23719;DHT22;43322;52.230;5.702;2023-12-20T14:10:00;8.60;99.90
23719;DHT22;43322;52.230;5.702;2023-12-20T14:12:26;8.90;99.90
23719;DHT22;43322;52.230;5.702;2023-12-20T14:14:53;8.70;99.90
23719;DHT22;43322;52.230;5.702;2023-12-20T14:17:22;9.80;99.90
23719;DHT22;43322;52.230;5.702;2023-12-20T14:19:49;9.00;99.90
23719;DHT22;43322;52.230;5.702;2023-12-20T14:22:17;8.50;99.90
23719;DHT22;43322;52.230;5.702;2023-12-20T14:24:44;9.90;99.90
23719;DHT22;43322;52.230;5.702;2023-12-20T14:27:11;8.70;99.90
23719;DHT22;43322;52.230;5.702;2023-12-20T14:29:38;8.60;99.90
23719;DHT22;43322;52.230;5.702;2023-12-20T14:32:06;8.60;99.90
23719;DHT22;43322;52.230;5.702;2023-12-20T14:34:34;8.60;99.90
23719;DHT22;43322;52.230;5.702;2023-12-20T14:37:02;9.80;99.90
23719;DHT22;43322;52.230;5.702;2023-12-20T14:39:29;8.50;99.90
23719;DHT22;43322;52.230;5.702;2023-12-20T14:41:56;9.10;99.90
23719;DHT22;43322;52.230;5.702;2023-12-20T14:44:23;9.60;99.90
23719;DHT22;43322;52.230;5.702;2023-12-20T14:46:50;9.30;99.90
23719;DHT22;43322;52.230;5.702;2023-12-20T14:49:18;9.90;99.90
23719;DHT22;43322;52.230;5.702;2023-12-20T14:51:46;9.00;99.90
23719;DHT22;43322;52.230;5.702;2023-12-20T14:54:13;9.70;99.90
23719;DHT22;43322;52.230;5.702;2023-12-20T14:56:40;8.60;99.90
23719;DHT22;43322;52.230;5.702;2023-12-20T14:59:07;9.50;99.90
23719;DHT22;43322;52.230;5.702;2023-12-20T15:01:34;9.00;99.90
23719;DHT22;43322;52.230;5.702;2023-12-20T15:04:01;8.50;99.90
23719;DHT22;43322;52.230;5.702;2023-12-20T15:06:29;8.60;99.90
23719;DHT22;43322;52.230;5.702;2023-12-20T15:08:58;9.20;99.90
23719;DHT22;43322;52.230;5.702;2023-12-20T15:11:25;8.60;99.90
23719;DHT22;43322;52.230;5.702;2023-12-20T15:13:52;8.60;99.90
23719;DHT22;43322;52.230;5.702;2023-12-20T15:16:21;9.40;99.90
23719;DHT22;43322;52.230;5.702;2023-12-20T15:18:48;8.60;99.90
23719;DHT22;43322;52.230;5.702;2023-12-20T15:21:16;8.50;99.90
23719;DHT22;43322;52.230;5.702;2023-12-20T15:23:43;8.60;99.90
23719;DHT22;43322;52.230;5.702;2023-12-20T15:26:19;8.60;99.90
23719;DHT22;43322;52.230;5.702;2023-12-20T15:28:46;9.00;99.90
23719;DHT22;43322;52.230;5.702;2023-12-20T15:31:13;9.50;99.90
23719;DHT22;43322;52.230;5.702;2023-12-20T15:33:40;8.50;99.90
23719;DHT22;43322;52.230;5.702;2023-12-20T15:36:07;8.90;99.90
23719;DHT22;43322;52.230;5.702;2023-12-20T15:38:34;8.50;99.90
23719;DHT22;43322;52.230;5.702;2023-12-20T15:41:01;8.50;99.90
23719;DHT22;43322;52.230;5.702;2023-12-20T15:43:30;8.50;99.90
23719;DHT22;43322;52.230;5.702;2023-12-20T15:45:56;8.70;99.90
23719;DHT22;43322;52.230;5.702;2023-12-20T15:48:24;8.60;99.90